createdAt,value
2023-03-14T00:00:16.287Z,1.543453
2023-03-14T00:05:15.802Z,1.457192
2023-03-14T00:10:17.070Z,1.373058
2023-03-14T00:15:15.993Z,1.320419
2023-03-14T00:20:16.482Z,1.264613
2023-03-14T00:25:15.822Z,1.150479
2023-03-14T00:30:15.836Z,1.047275
2023-03-14T00:35:15.603Z,0.938920
2023-03-14T00:40:17.109Z,0.935324
2023-03-14T00:45:16.886Z,0.960552
2023-03-14T00:50:21.474Z,0.855780
2023-03-14T00:55:16.342Z,0.711923
2023-03-14T01:00:16.723Z,0.617771
2023-03-14T01:05:15.899Z,0.602017
2023-03-14T01:10:16.720Z,0.453777
2023-03-14T01:15:16.334Z,0.436287
2023-03-14T01:20:16.882Z,0.393289
2023-03-14T01:25:17.028Z,0.248189
2023-03-14T01:30:15.968Z,0.260640
2023-03-14T01:35:15.589Z,0.228784
2023-03-14T01:40:16.124Z,0.174412
2023-03-14T01:45:15.808Z,0.150616
2023-03-14T01:50:16.024Z,0.139608
2023-03-14T01:55:16.045Z,0.113526
2023-03-14T02:00:16.006Z,0.093793
2023-03-14T02:05:16.479Z,0.077865
2023-03-14T02:10:15.930Z,0.059670
2023-03-14T02:15:16.291Z,0.045008
2023-03-14T02:20:16.503Z,0.038592
2023-03-14T02:25:15.846Z,0.034733
2023-03-14T02:30:16.103Z,0.031810
2023-03-14T02:35:17.503Z,0.028783
2023-03-14T02:40:15.699Z,0.027428
2023-03-14T02:45:16.914Z,0.027182
2023-03-14T02:50:15.972Z,0.027108
2023-03-14T02:55:15.978Z,0.026079
2023-03-14T03:00:15.577Z,0.027168
2023-03-14T03:05:16.008Z,0.026395
2023-03-14T03:10:16.141Z,0.027041
2023-03-14T03:15:17.381Z,0.026877
2023-03-14T03:20:16.969Z,0.026804
2023-03-14T03:25:16.375Z,0.027776
2023-03-14T03:30:16.592Z,0.026785
2023-03-14T03:35:15.844Z,0.027724
2023-03-14T03:40:17.284Z,0.027329
2023-03-14T03:45:18.109Z,0.027559
2023-03-14T03:50:16.519Z,0.027348
2023-03-14T03:55:16.135Z,0.026539
2023-03-14T04:00:16.346Z,0.027915
2023-03-14T04:05:15.806Z,0.026904
2023-03-14T04:10:15.794Z,0.027852
2023-03-14T04:15:16.424Z,0.027800
2023-03-14T04:20:20.612Z,0.026640
2023-03-14T04:25:16.488Z,0.026821
2023-03-14T04:30:15.988Z,0.027408
2023-03-14T04:35:15.966Z,0.026682
2023-03-14T04:40:18.607Z,0.026583
2023-03-14T04:45:16.116Z,0.026696
2023-03-14T04:50:16.052Z,0.026803
2023-03-14T04:55:15.623Z,0.026577
2023-03-14T05:00:16.138Z,0.026200
2023-03-14T05:05:16.960Z,0.027096
2023-03-14T05:10:16.360Z,0.026200
2023-03-14T05:15:15.985Z,0.027244
2023-03-14T05:20:16.764Z,0.027715
2023-03-14T05:25:16.031Z,0.027179
2023-03-14T05:30:15.719Z,0.027236
2023-03-14T05:35:16.410Z,0.026498
2023-03-14T05:40:16.783Z,0.026204
2023-03-14T05:45:17.458Z,0.026284
2023-03-14T05:50:16.000Z,0.027087
2023-03-14T05:55:15.865Z,0.026675
2023-03-14T06:00:16.173Z,0.026932
2023-03-14T06:05:16.220Z,0.027084
2023-03-14T06:10:15.879Z,0.026491
2023-03-14T06:15:15.533Z,0.027077
2023-03-14T06:20:15.726Z,0.027182
2023-03-14T06:25:15.982Z,0.026825
2023-03-14T06:30:15.798Z,0.026709
2023-03-14T06:35:16.544Z,0.027200
2023-03-14T06:40:16.645Z,0.026726
2023-03-14T06:45:16.501Z,0.027067
2023-03-14T06:50:16.314Z,0.026347
2023-03-14T06:55:22.568Z,0.026205
2023-03-14T07:00:15.672Z,0.027004
2023-03-14T07:05:16.852Z,0.027093
2023-03-14T07:10:16.342Z,0.027111
2023-03-14T07:15:19.093Z,0.026744
2023-03-14T07:20:16.509Z,0.025983
2023-03-14T07:25:15.894Z,0.026850
2023-03-14T07:30:21.171Z,0.026922
2023-03-14T07:35:16.097Z,0.026217
2023-03-14T07:40:16.477Z,0.026724
2023-03-14T07:45:15.879Z,0.027127
2023-03-14T07:50:16.737Z,0.027048
2023-03-14T07:55:16.148Z,0.026340
2023-03-14T08:00:16.106Z,0.026275
2023-03-14T08:05:17.053Z,0.026728
2023-03-14T08:10:16.109Z,0.026006
2023-03-14T08:15:16.387Z,0.027179
2023-03-14T08:20:15.694Z,0.025820
2023-03-14T08:25:16.547Z,0.026636
2023-03-14T08:30:16.106Z,0.028092
2023-03-14T08:35:16.870Z,0.026076
2023-03-14T08:40:17.555Z,0.026299
2023-03-14T08:45:16.947Z,0.027449
2023-03-14T08:50:16.551Z,0.026796
2023-03-14T08:55:20.773Z,0.025758
2023-03-14T09:00:16.523Z,0.027113
2023-03-14T09:05:16.008Z,0.027367
2023-03-14T09:10:16.385Z,0.026564
2023-03-14T09:15:16.420Z,0.026678
2023-03-14T09:20:16.717Z,0.027346
2023-03-14T09:25:16.334Z,0.026575
2023-03-14T09:30:15.518Z,0.026887
2023-03-14T09:35:17.604Z,0.026986
2023-03-14T09:40:17.030Z,0.027454
2023-03-14T09:45:15.886Z,0.026812
2023-03-14T09:50:17.425Z,0.027467
2023-03-14T09:55:17.232Z,0.027559
2023-03-14T10:00:17.066Z,0.027005
2023-03-14T10:05:17.358Z,0.027837
2023-03-14T10:10:16.787Z,0.027434
2023-03-14T10:15:15.668Z,0.026313
2023-03-14T10:20:16.482Z,0.026125
2023-03-14T10:25:15.701Z,0.026821
2023-03-14T10:30:18.045Z,0.026388
2023-03-14T10:35:16.485Z,0.027795
2023-03-14T10:40:15.737Z,0.027282
2023-03-14T10:45:16.744Z,0.026913
2023-03-14T10:50:17.305Z,0.027263
2023-03-14T10:55:16.214Z,0.025820
2023-03-14T11:00:16.140Z,0.026463
2023-03-14T11:05:16.479Z,0.026400
2023-03-14T11:10:16.025Z,0.026474
2023-03-14T11:15:16.170Z,0.027377
2023-03-14T11:20:16.338Z,0.026850
2023-03-14T11:25:16.179Z,0.027780
2023-03-14T11:30:16.104Z,0.026570
2023-03-14T11:35:16.121Z,0.026349
2023-03-14T11:40:16.371Z,0.026678
2023-03-14T11:45:16.897Z,0.025924
2023-03-14T11:50:16.351Z,0.026716
2023-03-14T11:55:20.695Z,0.026879
2023-03-14T12:00:16.590Z,0.027094
2023-03-14T12:05:15.819Z,0.026609
2023-03-14T12:10:16.142Z,0.026879
2023-03-14T12:15:15.994Z,0.027308
2023-03-14T12:20:16.141Z,0.027571
2023-03-14T12:25:17.112Z,0.026905
2023-03-14T12:30:15.936Z,0.026816
2023-03-14T12:35:16.028Z,0.026822
2023-03-14T12:40:16.682Z,0.027878
2023-03-14T12:45:16.561Z,0.026857
2023-03-14T12:50:16.764Z,0.026833
2023-03-14T12:55:16.845Z,0.026122
2023-03-14T13:00:17.046Z,0.026654
2023-03-14T13:05:15.952Z,0.026564
2023-03-14T13:10:15.582Z,0.026977
2023-03-14T13:15:17.329Z,0.026028
2023-03-14T13:20:15.926Z,0.027127
2023-03-14T13:25:17.388Z,0.027348
2023-03-14T13:30:17.607Z,0.027835
2023-03-14T13:35:17.330Z,0.027525
2023-03-14T13:40:17.500Z,0.026021
2023-03-14T13:45:17.136Z,0.026905
2023-03-14T13:50:17.635Z,0.026304
2023-03-14T13:55:16.109Z,0.027324
2023-03-14T14:00:15.707Z,0.028534
2023-03-14T14:05:17.083Z,0.027938
2023-03-14T14:10:16.316Z,0.030483
2023-03-14T14:15:15.885Z,0.033938
2023-03-14T14:20:17.707Z,0.037268
2023-03-14T14:25:17.556Z,0.041139
2023-03-14T14:30:15.678Z,0.052982
2023-03-14T14:35:15.588Z,0.070795
2023-03-14T14:40:16.197Z,0.090164
2023-03-14T14:45:16.966Z,0.105472
2023-03-14T14:50:16.930Z,0.127006
2023-03-14T14:55:21.304Z,0.156015
2023-03-14T15:00:15.983Z,0.196494
2023-03-14T15:05:16.797Z,0.231897
2023-03-14T15:10:16.667Z,0.263308
2023-03-14T15:15:15.728Z,0.289888
2023-03-14T15:20:16.101Z,0.323609
2023-03-14T15:25:39.862Z,0.354502
2023-03-14T15:30:16.179Z,0.377173
2023-03-14T15:35:17.772Z,0.386547
2023-03-14T15:40:17.042Z,0.404385
2023-03-14T15:45:16.159Z,0.445430
2023-03-14T15:50:16.024Z,0.497660
2023-03-14T15:55:16.625Z,0.534807
2023-03-14T16:00:15.775Z,0.580413
2023-03-14T16:05:16.797Z,0.631281
2023-03-14T16:10:15.586Z,0.653040
2023-03-14T16:15:16.912Z,0.652498
2023-03-14T16:20:16.069Z,0.702739
2023-03-14T16:25:15.574Z,0.745744
2023-03-14T16:30:16.499Z,0.784381
2023-03-14T16:35:16.128Z,0.841378
2023-03-14T16:40:17.016Z,0.901758
2023-03-14T16:45:15.567Z,0.944738
2023-03-14T16:50:16.213Z,1.009974
2023-03-14T16:55:15.850Z,1.233114
2023-03-14T17:00:16.915Z,1.654217
2023-03-14T17:05:17.764Z,1.727984
2023-03-14T17:10:17.763Z,1.602447
2023-03-14T17:15:16.263Z,1.586579
2023-03-14T17:20:16.494Z,1.779445
2023-03-14T17:25:15.753Z,1.938667
2023-03-14T17:30:16.472Z,2.146057
2023-03-14T17:35:15.749Z,2.233498
2023-03-14T17:40:16.163Z,2.237588
2023-03-14T17:45:17.220Z,2.203762
2023-03-14T17:50:16.394Z,2.232818
2023-03-14T17:55:16.122Z,2.124991
2023-03-14T18:00:16.135Z,2.330586
2023-03-14T18:05:15.943Z,2.341149
2023-03-14T18:10:16.655Z,2.468407
2023-03-14T18:15:16.095Z,2.259612
2023-03-14T18:20:15.785Z,2.124008
2023-03-14T18:25:15.692Z,1.926861
2023-03-14T18:30:16.331Z,1.857376
2023-03-14T18:35:16.527Z,2.226401
2023-03-14T18:40:15.671Z,2.450237
2023-03-14T18:45:16.208Z,2.636936
2023-03-14T18:50:15.834Z,2.666612
2023-03-14T18:55:16.099Z,2.370411
2023-03-14T19:00:15.842Z,2.265843
2023-03-14T19:05:18.481Z,2.280250
2023-03-14T19:10:15.838Z,2.375281
2023-03-14T19:15:15.604Z,2.362549
2023-03-14T19:20:16.016Z,2.668350
2023-03-14T19:25:15.677Z,2.646278
2023-03-14T19:30:16.355Z,2.697945
2023-03-14T19:35:15.704Z,3.112309
2023-03-14T19:40:16.165Z,3.113766
2023-03-14T19:45:15.839Z,3.131438
2023-03-14T19:50:15.946Z,3.145663
2023-03-14T19:55:16.890Z,3.037103
2023-03-14T20:00:16.945Z,3.204968
2023-03-14T20:05:15.938Z,3.176427
2023-03-14T20:10:16.130Z,3.401286
2023-03-14T20:15:16.974Z,3.529476
2023-03-14T20:20:15.563Z,2.890475
2023-03-14T20:25:15.792Z,3.001495
2023-03-14T20:30:15.645Z,3.575654
2023-03-14T20:35:17.092Z,3.272155
2023-03-14T20:40:17.150Z,3.419567
2023-03-14T20:45:15.994Z,3.529340
2023-03-14T20:50:16.285Z,3.371413
2023-03-14T20:55:16.548Z,3.275111
2023-03-14T21:00:16.081Z,3.323892
2023-03-14T21:05:16.198Z,3.362653
2023-03-14T21:10:16.530Z,3.494825
2023-03-14T21:15:16.117Z,3.549246
2023-03-14T21:20:15.730Z,3.331030
2023-03-14T21:25:16.117Z,3.223852
2023-03-14T21:30:16.120Z,3.293536
2023-03-14T21:35:16.333Z,2.870024
2023-03-14T21:40:15.780Z,3.078349
2023-03-14T21:45:16.317Z,3.294581
2023-03-14T21:50:16.105Z,3.072949
2023-03-14T21:55:15.894Z,3.147893
2023-03-14T22:00:15.644Z,3.116950
2023-03-14T22:05:15.707Z,3.099336
2023-03-14T22:10:15.787Z,3.056120
2023-03-14T22:15:15.522Z,3.000078
2023-03-14T22:20:16.633Z,2.950062
2023-03-14T22:25:16.344Z,2.888997
2023-03-14T22:30:17.664Z,2.851922
2023-03-14T22:35:16.134Z,2.800810
2023-03-14T22:40:15.939Z,2.731714
2023-03-14T22:45:15.816Z,2.631682
2023-03-14T22:50:15.603Z,2.543706
2023-03-14T22:55:15.824Z,2.517663
2023-03-14T23:00:16.465Z,2.349897
2023-03-14T23:05:18.759Z,2.396778
2023-03-14T23:10:15.972Z,2.304273
2023-03-14T23:15:16.838Z,2.239298
2023-03-14T23:20:16.142Z,2.164263
2023-03-14T23:25:15.957Z,2.083656
2023-03-14T23:30:15.971Z,2.002618
2023-03-14T23:35:16.800Z,1.928946
2023-03-14T23:40:17.405Z,1.847075
2023-03-14T23:45:15.669Z,1.770778
2023-03-14T23:50:15.756Z,1.689288
2023-03-14T23:55:16.322Z,1.607488
